TFM - Tactical Decision Aid (Experimental) INFO Settings
ID: Runway Winds: CIG/VIS Threshold: METAR Board: Map:

Kclt - Charlotte-Douglas Intl

Updated at: 1429 UTC 14 Feb 2016
Latest TAF at: 1125 UTC 14 Feb 2016

TAF Board

Time1352Z14/15Z14/16Z14/17Z14/18Z14/19Z14/20Z14/21Z14/22Z14/23Z15/00Z15/01Z15/02Z15/03Z
TypeOBSPRVLPRVLPRVLPRVLPRVLPRVLPRVLPRVLPRVLPRVLPRVLPRVLPRVL
VIS10>6>6>6>6>6>6>6>6>6>6>6>6>6
CIG11010010010050505050505050505050
CoverOVCBKNBKNBKNOVCOVCOVCOVCOVCOVCOVCOVCOVCOVC
FltCatVFRVFRVFRVFRVFRVFRVFRVFRVFRVFRVFRVFRVFRVFR
WX----------------------------
WDir90707070110110110110110110110110110110
WSpd106666666666666
WGst----------------------------
TAF
KCLT 141125Z 1412/1512 07006KT P6SM BKN100
  FM141800 11006KT P6SM BKN050 OVC100
  FM150400 10007KT P6SM OVC045
  PROB30 1504/1509 4SM -SN OVC025
  FM150900 06006KT P6SM OVC045
  PROB30 1509/1512 4SM -SNPL OVC025


METAR
KCLT 141352Z 09010KT 10SM BKN110 BKN200 OVC250 M05/M19 A3050 RMK AO2 SLP334 T10501189 $

TAF/METAR Board Legend

Potential Impact
  None Marginal Slight Moderate High
Visibility (sm) > ≤X≤ <
Ceiling (100 ft) > ≤X≤ <
Wind Speed (kt) <10 10≤X<20 20≤X<30 ≥30
Wind Gust (kt) <15 15≤X<25 25≤X<35 ≥35
Weather No Wx Reported VCTS -TS,-FZRA TS,FZRA +TS,+FZRA